Time;durP1;ratioP1;P1;durP2;ratioP2;P2;SDS_P1;SDS_P2;PMS_P1;PMS_P2;Temp;Humidity;BMP_temperature;BMP_pressure;BME280_temperature;BME280_humidity;BME280_pressure;Samples;Min_cycle;Max_cycle;Signal;HPM_P1;HPM_P2
2023/12/24 00:01:27;;;;;;;2.20;1.25;;;;;;;;;;5089715;28;20052;-79
2023/12/24 00:04:00;;;;;;;2.00;1.20;;;;;;;;;;5088376;28;20052;-79
2023/12/24 00:06:28;;;;;;;2.42;0.93;;;;;;;;;;5087275;28;20135;-79
2023/12/24 00:08:56;;;;;;;3.10;1.30;;;;;;;;;;5086433;28;20048;-79
2023/12/24 00:11:22;;;;;;;1.25;0.90;;;;;;;;;;5091044;28;20079;-79
2023/12/24 00:13:49;;;;;;;1.63;1.10;;;;;;;;;;5090881;28;20044;-78
2023/12/24 00:16:16;;;;;;;1.92;1.20;;;;;;;;;;5083630;28;20080;-78
2023/12/24 00:18:42;;;;;;;1.58;1.00;;;;;;;;;;5096043;28;20087;-79
2023/12/24 00:21:09;;;;;;;2.35;1.10;;;;;;;;;;5090087;28;20071;-78
2023/12/24 00:23:36;;;;;;;1.25;1.08;;;;;;;;;;5088670;28;20520;-79
2023/12/24 00:26:04;;;;;;;2.38;1.10;;;;;;;;;;5083683;28;20044;-79
2023/12/24 00:28:30;;;;;;;1.85;1.10;;;;;;;;;;5095053;28;20083;-80
2023/12/24 00:30:58;;;;;;;1.17;0.95;;;;;;;;;;5096407;28;20462;-78
2023/12/24 00:33:25;;;;;;;1.02;0.90;;;;;;;;;;5091023;28;20089;-78
2023/12/24 00:35:51;;;;;;;1.35;1.00;;;;;;;;;;5094839;28;20079;-79
2023/12/24 00:38:18;;;;;;;1.00;0.90;;;;;;;;;;5093750;28;20458;-79
2023/12/24 00:40:45;;;;;;;1.48;1.23;;;;;;;;;;5087625;28;20044;-79
2023/12/24 00:43:13;;;;;;;1.80;1.00;;;;;;;;;;5086127;28;20144;-78
2023/12/24 00:45:40;;;;;;;2.17;1.10;;;;;;;;;;5092680;28;20499;-78
2023/12/24 00:48:09;;;;;;;3.92;1.08;;;;;;;;;;5093822;28;20044;-79
2023/12/24 00:50:36;;;;;;;2.78;0.90;;;;;;;;;;5091809;28;20071;-79
2023/12/24 00:53:02;;;;;;;1.90;1.00;;;;;;;;;;5086848;28;20072;-77
2023/12/24 00:55:29;;;;;;;1.00;0.90;;;;;;;;;;5091108;28;20060;-79
2023/12/24 00:57:56;;;;;;;2.72;1.20;;;;;;;;;;5092115;28;20087;-78
2023/12/24 01:00:24;;;;;;;1.00;0.88;;;;;;;;;;5092937;28;20052;-78
2023/12/24 01:02:51;;;;;;;1.63;1.00;;;;;;;;;;5090220;28;20074;-78
2023/12/24 01:05:17;;;;;;;2.80;1.17;;;;;;;;;;5082617;28;20052;-79
2023/12/24 01:07:44;;;;;;;2.35;1.20;;;;;;;;;;5092706;28;20040;-79
2023/12/24 01:10:11;;;;;;;2.45;1.13;;;;;;;;;;5093667;28;20044;-78
2023/12/24 01:12:38;;;;;;;3.40;1.30;;;;;;;;;;5090286;28;20047;-79
2023/12/24 01:15:05;;;;;;;2.70;1.20;;;;;;;;;;5095663;28;20101;-80
2023/12/24 01:17:33;;;;;;;3.30;1.38;;;;;;;;;;5091000;28;20080;-80
2023/12/24 01:20:00;;;;;;;1.33;1.20;;;;;;;;;;5087717;28;20087;-79
2023/12/24 01:22:27;;;;;;;2.33;1.20;;;;;;;;;;5085248;28;20049;-78
2023/12/24 01:24:53;;;;;;;2.10;1.23;;;;;;;;;;5088168;28;20500;-79
2023/12/24 01:27:20;;;;;;;1.52;1.42;;;;;;;;;;5091418;28;20083;-78
2023/12/24 01:29:48;;;;;;;2.30;1.25;;;;;;;;;;5094951;28;20117;-79
2023/12/24 01:32:14;;;;;;;1.90;1.20;;;;;;;;;;5095202;28;20089;-79
2023/12/24 01:34:42;;;;;;;1.83;1.00;;;;;;;;;;5090283;28;20044;-78
2023/12/24 01:37:09;;;;;;;1.50;1.10;;;;;;;;;;5096766;28;20499;-79
2023/12/24 01:39:36;;;;;;;2.28;0.90;;;;;;;;;;5092898;28;20117;-78
2023/12/24 01:42:02;;;;;;;1.95;0.98;;;;;;;;;;5090656;28;20388;-79
2023/12/24 01:44:29;;;;;;;1.92;1.10;;;;;;;;;;5093290;28;20044;-77
2023/12/24 01:46:56;;;;;;;1.42;1.05;;;;;;;;;;5091165;28;20048;-78
2023/12/24 01:49:22;;;;;;;3.25;1.00;;;;;;;;;;5090475;28;20084;-76
2023/12/24 01:51:50;;;;;;;1.10;0.95;;;;;;;;;;5085212;28;20490;-79
2023/12/24 01:54:17;;;;;;;2.63;1.00;;;;;;;;;;5092907;28;20101;-77
2023/12/24 01:56:44;;;;;;;1.58;0.98;;;;;;;;;;5088098;28;20469;-79
2023/12/24 01:59:10;;;;;;;2.03;1.05;;;;;;;;;;5085989;28;20087;-78
2023/12/24 02:01:37;;;;;;;1.77;1.30;;;;;;;;;;5086748;28;20122;-78
2023/12/24 02:04:04;;;;;;;2.10;1.10;;;;;;;;;;5093159;28;20488;-78
2023/12/24 02:06:32;;;;;;;2.53;1.20;;;;;;;;;;5094659;28;20462;-78
2023/12/24 02:09:00;;;;;;;1.08;0.90;;;;;;;;;;5094791;28;20055;-78
2023/12/24 02:11:27;;;;;;;1.42;0.82;;;;;;;;;;5083324;28;20044;-79
2023/12/24 02:13:53;;;;;;;1.52;0.90;;;;;;;;;;5090097;28;20097;-78
2023/12/24 02:16:21;;;;;;;0.80;0.80;;;;;;;;;;5093118;28;20093;-78
2023/12/24 02:18:48;;;;;;;0.90;0.85;;;;;;;;;;5088864;28;20048;-78
2023/12/24 02:21:15;;;;;;;1.13;0.82;;;;;;;;;;5086869;28;20040;-79
2023/12/24 02:23:42;;;;;;;0.70;0.70;;;;;;;;;;5092300;28;20043;-79
2023/12/24 02:26:13;;;;;;;1.58;0.82;;;;;;;;;;5088164;28;20041;-78
2023/12/24 02:28:42;;;;;;;0.80;0.80;;;;;;;;;;5089538;28;20414;-79
2023/12/24 02:31:10;;;;;;;0.57;0.57;;;;;;;;;;5086774;28;20075;-78
2023/12/24 02:33:40;;;;;;;8.77;0.95;;;;;;;;;;5090713;28;20077;-79
2023/12/24 02:36:07;;;;;;;2.08;0.90;;;;;;;;;;5090627;28;20497;-79
2023/12/24 02:38:35;;;;;;;2.35;0.90;;;;;;;;;;5095562;28;20133;-78
2023/12/24 02:41:02;;;;;;;1.75;0.90;;;;;;;;;;5086891;28;20075;-79
2023/12/24 02:43:28;;;;;;;1.02;0.80;;;;;;;;;;5088411;28;20492;-80
2023/12/24 02:45:55;;;;;;;0.60;0.60;;;;;;;;;;5088874;28;20062;-79
2023/12/24 02:48:21;;;;;;;1.00;0.90;;;;;;;;;;5088561;28;20048;-79
2023/12/24 02:50:48;;;;;;;0.73;0.73;;;;;;;;;;5090780;28;20048;-79
2023/12/24 02:53:15;;;;;;;2.75;1.00;;;;;;;;;;5084296;28;20047;-80
2023/12/24 02:55:42;;;;;;;1.35;0.77;;;;;;;;;;5084332;28;20044;-79
2023/12/24 02:58:09;;;;;;;1.25;0.80;;;;;;;;;;5091238;28;20078;-78
2023/12/24 03:00:35;;;;;;;1.05;0.98;;;;;;;;;;5086005;28;20127;-80
2023/12/24 03:03:02;;;;;;;4.22;1.10;;;;;;;;;;5084080;28;20040;-79
2023/12/24 03:05:28;;;;;;;2.53;1.55;;;;;;;;;;5086042;28;20102;-78
2023/12/24 03:07:55;;;;;;;1.50;0.90;;;;;;;;;;5089218;28;20511;-78
2023/12/24 03:10:21;;;;;;;1.35;1.13;;;;;;;;;;5092698;28;20503;-79
2023/12/24 03:12:49;;;;;;;3.03;0.93;;;;;;;;;;5087270;28;20070;-79
2023/12/24 03:15:15;;;;;;;2.45;1.00;;;;;;;;;;5090712;28;20048;-80
2023/12/24 03:17:42;;;;;;;0.98;0.88;;;;;;;;;;5088260;28;20070;-79
2023/12/24 03:20:09;;;;;;;0.82;0.82;;;;;;;;;;5092003;28;20492;-78
2023/12/24 03:22:35;;;;;;;1.05;0.98;;;;;;;;;;5083048;28;20052;-78
2023/12/24 03:25:02;;;;;;;1.10;1.00;;;;;;;;;;5091142;28;20055;-78
2023/12/24 03:27:30;;;;;;;3.00;1.10;;;;;;;;;;5094996;28;20423;-79
2023/12/24 03:29:58;;;;;;;1.40;1.30;;;;;;;;;;5086653;28;20158;-78
2023/12/24 03:32:24;;;;;;;2.08;0.90;;;;;;;;;;5091580;28;20044;-80
2023/12/24 03:34:50;;;;;;;1.02;0.90;;;;;;;;;;5084378;28;20083;-78
2023/12/24 03:37:17;;;;;;;1.40;1.10;;;;;;;;;;5085769;28;20581;-77
2023/12/24 03:39:43;;;;;;;1.38;1.00;;;;;;;;;;5088554;28;20040;-78
2023/12/24 03:42:10;;;;;;;0.95;0.80;;;;;;;;;;5089800;28;20048;-78
2023/12/24 03:44:36;;;;;;;0.90;0.85;;;;;;;;;;5092879;28;20071;-79
2023/12/24 03:47:04;;;;;;;2.22;0.90;;;;;;;;;;5084999;28;20105;-78
2023/12/24 03:49:30;;;;;;;0.95;0.95;;;;;;;;;;5092177;28;20111;-79
2023/12/24 03:51:56;;;;;;;1.17;0.90;;;;;;;;;;5085531;28;20052;-78
2023/12/24 03:54:23;;;;;;;0.95;0.73;;;;;;;;;;5090526;28;20063;-79
2023/12/24 03:56:49;;;;;;;0.82;0.80;;;;;;;;;;5090328;28;20048;-77
2023/12/24 03:59:17;;;;;;;2.13;1.00;;;;;;;;;;5087605;28;20508;-78
2023/12/24 04:01:43;;;;;;;0.70;0.70;;;;;;;;;;5089621;28;20087;-78
2023/12/24 04:04:11;;;;;;;0.82;0.80;;;;;;;;;;5090186;28;20048;-78
2023/12/24 04:06:38;;;;;;;1.55;0.80;;;;;;;;;;5093107;28;20044;-78
2023/12/24 04:09:04;;;;;;;1.67;0.90;;;;;;;;;;5085416;28;20079;-77
2023/12/24 04:11:31;;;;;;;0.90;0.80;;;;;;;;;;5093483;28;20083;-78
2023/12/24 04:13:58;;;;;;;1.25;0.90;;;;;;;;;;5089301;28;20087;-78
2023/12/24 04:16:24;;;;;;;0.80;0.80;;;;;;;;;;5084975;28;20099;-79
2023/12/24 04:18:50;;;;;;;1.30;0.90;;;;;;;;;;5094051;28;20044;-78
2023/12/24 04:21:18;;;;;;;1.35;0.90;;;;;;;;;;5085922;28;20048;-78
2023/12/24 04:23:44;;;;;;;0.85;0.77;;;;;;;;;;5089393;28;20561;-77
2023/12/24 04:26:11;;;;;;;1.13;0.88;;;;;;;;;;5087324;28;20412;-78
2023/12/24 04:28:37;;;;;;;1.35;0.90;;;;;;;;;;5085776;28;20047;-77
2023/12/24 04:31:04;;;;;;;1.80;0.70;;;;;;;;;;5089098;28;20484;-79
2023/12/24 04:33:30;;;;;;;0.80;0.80;;;;;;;;;;5080967;28;20091;-79
2023/12/24 04:35:57;;;;;;;3.10;1.65;;;;;;;;;;5087270;28;20053;-79
2023/12/24 04:38:25;;;;;;;0.70;0.70;;;;;;;;;;5090846;28;20106;-79
2023/12/24 04:40:52;;;;;;;0.80;0.80;;;;;;;;;;5093008;28;20048;-79
2023/12/24 04:43:18;;;;;;;0.90;0.77;;;;;;;;;;5084942;28;20106;-78
2023/12/24 04:45:45;;;;;;;2.15;0.80;;;;;;;;;;5085466;28;20079;-77
2023/12/24 04:48:11;;;;;;;1.00;0.80;;;;;;;;;;5090133;28;20048;-79
2023/12/24 04:50:38;;;;;;;0.75;0.75;;;;;;;;;;5090265;28;20392;-79
2023/12/24 04:53:04;;;;;;;1.15;1.00;;;;;;;;;;5085498;28;20108;-78
2023/12/24 04:55:32;;;;;;;1.60;0.90;;;;;;;;;;5087690;28;20416;-79
2023/12/24 04:57:59;;;;;;;0.80;0.70;;;;;;;;;;5089709;28;20045;-78
2023/12/24 05:00:25;;;;;;;0.80;0.80;;;;;;;;;;5094051;28;20079;-78
2023/12/24 05:02:51;;;;;;;1.55;0.85;;;;;;;;;;5094314;28;20541;-79
2023/12/24 05:05:18;;;;;;;2.13;1.02;;;;;;;;;;5093825;28;20493;-79
2023/12/24 05:07:44;;;;;;;2.17;0.90;;;;;;;;;;5092630;28;20052;-79
2023/12/24 05:10:11;;;;;;;2.42;1.27;;;;;;;;;;5090345;28;20471;-79
2023/12/24 05:12:39;;;;;;;2.38;1.50;;;;;;;;;;5089678;28;20462;-79
2023/12/24 05:15:06;;;;;;;2.60;1.50;;;;;;;;;;5091002;28;20076;-80
2023/12/24 05:17:32;;;;;;;1.77;1.55;;;;;;;;;;5088268;28;20080;-79
2023/12/24 05:19:59;;;;;;;1.70;1.40;;;;;;;;;;5088548;28;20050;-78
2023/12/24 05:22:26;;;;;;;2.28;1.58;;;;;;;;;;5092480;28;20457;-79
2023/12/24 05:24:52;;;;;;;1.85;1.55;;;;;;;;;;5091998;28;20453;-79
2023/12/24 05:27:19;;;;;;;2.65;1.67;;;;;;;;;;5093415;28;20048;-80
2023/12/24 05:29:47;;;;;;;2.20;1.83;;;;;;;;;;5084431;28;20087;-80
2023/12/24 05:32:13;;;;;;;3.25;1.90;;;;;;;;;;5092068;28;20040;-80
2023/12/24 05:34:40;;;;;;;2.20;1.70;;;;;;;;;;5090100;28;20079;-79
2023/12/24 05:37:07;;;;;;;2.42;1.92;;;;;;;;;;5089815;28;20048;-79
2023/12/24 05:39:33;;;;;;;3.08;2.08;;;;;;;;;;5087064;28;20048;-79
2023/12/24 05:42:00;;;;;;;3.08;2.00;;;;;;;;;;5086869;28;20044;-80
2023/12/24 05:44:26;;;;;;;2.47;1.88;;;;;;;;;;5091644;28;20484;-79
2023/12/24 05:46:54;;;;;;;2.55;2.00;;;;;;;;;;5090275;28;20119;-79
2023/12/24 05:49:21;;;;;;;2.30;1.75;;;;;;;;;;5089024;28;20079;-79
2023/12/24 05:51:47;;;;;;;2.85;2.00;;;;;;;;;;5091959;28;20069;-79
2023/12/24 05:54:14;;;;;;;3.50;2.00;;;;;;;;;;5091042;28;20581;-79
2023/12/24 05:56:41;;;;;;;3.40;2.13;;;;;;;;;;5092131;28;20470;-80
2023/12/24 05:59:08;;;;;;;2.70;2.15;;;;;;;;;;5093953;28;20535;-80
2023/12/24 06:01:35;;;;;;;2.20;2.00;;;;;;;;;;5089990;28;20076;-79
2023/12/24 06:04:03;;;;;;;3.85;2.20;;;;;;;;;;5092633;28;20087;-80
2023/12/24 06:06:30;;;;;;;3.60;2.10;;;;;;;;;;5089495;28;20048;-79
2023/12/24 06:08:56;;;;;;;2.47;1.95;;;;;;;;;;5090103;28;20044;-80
2023/12/24 06:11:23;;;;;;;2.40;1.83;;;;;;;;;;5086694;28;20072;-80
2023/12/24 06:13:50;;;;;;;2.03;1.85;;;;;;;;;;5088949;28;20077;-80
2023/12/24 06:16:16;;;;;;;4.43;2.15;;;;;;;;;;5084050;28;20082;-77
2023/12/24 06:18:43;;;;;;;2.97;1.98;;;;;;;;;;5084597;28;20059;-78
2023/12/24 06:21:10;;;;;;;2.65;1.85;;;;;;;;;;5094085;28;20072;-80
2023/12/24 06:23:37;;;;;;;2.40;2.10;;;;;;;;;;5088673;28;20094;-78
2023/12/24 06:26:04;;;;;;;2.30;2.00;;;;;;;;;;5087779;28;20060;-79
2023/12/24 06:28:30;;;;;;;2.90;2.20;;;;;;;;;;5081828;28;20447;-79
2023/12/24 06:30:57;;;;;;;2.53;1.88;;;;;;;;;;5089838;28;20511;-79
2023/12/24 06:33:23;;;;;;;1.88;1.67;;;;;;;;;;5084375;28;20576;-80
2023/12/24 06:35:49;;;;;;;5.03;1.90;;;;;;;;;;5092034;28;20071;-79
2023/12/24 06:38:17;;;;;;;2.42;1.83;;;;;;;;;;5089967;28;20052;-78
2023/12/24 06:40:44;;;;;;;2.92;1.90;;;;;;;;;;5089183;28;20113;-79
2023/12/24 06:43:10;;;;;;;2.10;1.67;;;;;;;;;;5083567;28;20128;-79
2023/12/24 06:45:37;;;;;;;1.98;1.52;;;;;;;;;;5087191;28;20048;-78
2023/12/24 06:48:03;;;;;;;2.03;1.58;;;;;;;;;;5092010;28;20493;-79
2023/12/24 06:50:31;;;;;;;2.30;1.63;;;;;;;;;;5085332;28;20084;-79
2023/12/24 06:52:58;;;;;;;1.70;1.30;;;;;;;;;;5086856;28;20062;-79
2023/12/24 06:55:25;;;;;;;4.30;2.05;;;;;;;;;;5087737;28;20483;-79
2023/12/24 06:57:52;;;;;;;1.73;1.50;;;;;;;;;;5090581;28;20094;-80
2023/12/24 07:00:18;;;;;;;2.67;1.67;;;;;;;;;;5093043;28;20044;-80
2023/12/24 07:02:45;;;;;;;3.05;1.40;;;;;;;;;;5085918;28;20101;-80
2023/12/24 07:05:11;;;;;;;1.95;1.40;;;;;;;;;;5089490;28;20075;-79
2023/12/24 07:07:38;;;;;;;1.55;1.35;;;;;;;;;;5086624;28;20044;-80
2023/12/24 07:10:04;;;;;;;2.47;1.70;;;;;;;;;;5087856;28;20075;-80
2023/12/24 07:12:32;;;;;;;2.38;1.67;;;;;;;;;;5091983;28;20123;-79
2023/12/24 07:14:59;;;;;;;2.92;1.00;;;;;;;;;;5082257;28;20044;-79
2023/12/24 07:17:25;;;;;;;1.20;1.10;;;;;;;;;;5090976;28;20040;-80
2023/12/24 07:19:52;;;;;;;0.98;0.98;;;;;;;;;;5088903;28;20075;-78
2023/12/24 07:22:18;;;;;;;1.48;0.80;;;;;;;;;;5086963;28;20557;-78
2023/12/24 07:24:45;;;;;;;1.20;1.10;;;;;;;;;;5082979;28;20049;-79
2023/12/24 07:27:11;;;;;;;1.48;1.08;;;;;;;;;;5086384;28;20475;-80
2023/12/24 07:29:41;;;;;;;1.10;1.00;;;;;;;;;;5092533;28;20599;-79
2023/12/24 07:32:07;;;;;;;1.20;1.10;;;;;;;;;;5084150;28;20465;-80
2023/12/24 07:34:33;;;;;;;1.38;1.25;;;;;;;;;;5086703;28;20420;-80
2023/12/24 07:37:00;;;;;;;1.85;1.30;;;;;;;;;;5088031;28;20143;-78
2023/12/24 07:39:27;;;;;;;2.13;1.40;;;;;;;;;;5087666;28;20415;-80
2023/12/24 07:41:55;;;;;;;2.25;1.40;;;;;;;;;;5086792;28;20557;-79
2023/12/24 07:44:22;;;;;;;1.67;1.20;;;;;;;;;;5084523;28;20052;-79
2023/12/24 07:46:49;;;;;;;1.08;0.98;;;;;;;;;;5086575;28;20040;-78
2023/12/24 07:49:16;;;;;;;2.40;1.20;;;;;;;;;;5086048;28;20076;-80
2023/12/24 07:51:42;;;;;;;2.20;1.10;;;;;;;;;;5077174;28;20083;-79
2023/12/24 07:54:09;;;;;;;2.92;1.60;;;;;;;;;;5092467;28;20557;-79
2023/12/24 07:56:35;;;;;;;3.53;2.42;;;;;;;;;;5092046;28;20108;-78
2023/12/24 07:59:02;;;;;;;3.00;1.90;;;;;;;;;;5079689;28;20464;-80
2023/12/24 08:01:28;;;;;;;2.35;1.40;;;;;;;;;;5079844;28;20127;-79
2023/12/24 08:03:56;;;;;;;1.10;1.00;;;;;;;;;;5083448;28;20079;-80
2023/12/24 08:06:22;;;;;;;1.20;1.10;;;;;;;;;;5089531;28;20499;-78
2023/12/24 08:08:49;;;;;;;1.60;0.90;;;;;;;;;;5086424;28;20051;-80
2023/12/24 08:11:16;;;;;;;0.82;0.82;;;;;;;;;;5089097;28;20075;-79
2023/12/24 08:13:42;;;;;;;0.80;0.80;;;;;;;;;;5092513;28;20048;-79
2023/12/24 08:16:09;;;;;;;1.50;0.98;;;;;;;;;;5087657;28;20048;-79
2023/12/24 08:18:37;;;;;;;0.70;0.70;;;;;;;;;;5086310;28;20052;-79
2023/12/24 08:21:09;;;;;;;1.35;0.90;;;;;;;;;;5089345;28;20141;-78
2023/12/24 08:23:36;;;;;;;1.00;0.90;;;;;;;;;;5085121;28;20048;-78
2023/12/24 08:26:03;;;;;;;1.45;0.75;;;;;;;;;;5079303;28;20250;-78
2023/12/24 08:28:30;;;;;;;1.00;0.80;;;;;;;;;;5090242;28;20063;-78
2023/12/24 08:30:56;;;;;;;1.23;0.90;;;;;;;;;;5088961;28;20071;-79
2023/12/24 08:33:23;;;;;;;1.10;0.90;;;;;;;;;;5086128;28;20084;-80
2023/12/24 08:35:50;;;;;;;1.30;1.10;;;;;;;;;;5094699;28;20048;-79
2023/12/24 08:38:18;;;;;;;1.27;0.90;;;;;;;;;;5091095;28;20523;-79
2023/12/24 08:40:44;;;;;;;1.42;0.80;;;;;;;;;;5094186;28;20107;-78
2023/12/24 08:43:11;;;;;;;1.08;1.02;;;;;;;;;;5081923;28;20128;-79
2023/12/24 08:45:38;;;;;;;1.65;1.30;;;;;;;;;;5092141;28;21063;-79
2023/12/24 08:48:05;;;;;;;2.80;1.17;;;;;;;;;;5088455;28;20790;-78
2023/12/24 08:50:32;;;;;;;2.65;1.00;;;;;;;;;;5086062;28;20561;-78
2023/12/24 08:52:59;;;;;;;1.75;1.13;;;;;;;;;;5083084;28;20420;-80
2023/12/24 08:55:27;;;;;;;1.35;1.00;;;;;;;;;;5091726;28;20040;-80
2023/12/24 08:57:53;;;;;;;1.42;1.23;;;;;;;;;;5088948;28;20048;-80
2023/12/24 09:00:20;;;;;;;1.80;1.13;;;;;;;;;;5091840;28;20052;-80
2023/12/24 09:02:48;;;;;;;3.03;0.90;;;;;;;;;;5092074;28;20052;-79
2023/12/24 09:05:17;;;;;;;1.65;1.10;;;;;;;;;;5090090;28;20060;-78
2023/12/24 09:07:44;;;;;;;1.20;0.85;;;;;;;;;;5088967;28;20044;-79
2023/12/24 09:10:11;;;;;;;1.88;1.40;;;;;;;;;;5092794;28;20127;-79
2023/12/24 09:12:39;;;;;;;1.30;0.90;;;;;;;;;;5092664;28;20080;-79
2023/12/24 09:15:06;;;;;;;1.05;0.80;;;;;;;;;;5092332;28;20083;-80
2023/12/24 09:17:33;;;;;;;1.60;1.10;;;;;;;;;;5094998;28;20052;-79
2023/12/24 09:20:00;;;;;;;2.25;0.60;;;;;;;;;;5092181;28;20044;-79
2023/12/24 09:22:26;;;;;;;0.50;0.50;;;;;;;;;;5086036;28;20083;-80
2023/12/24 09:24:53;;;;;;;0.60;0.60;;;;;;;;;;5085885;28;20127;-77
2023/12/24 09:27:20;;;;;;;1.98;1.73;;;;;;;;;;5088785;28;20087;-79
2023/12/24 09:29:48;;;;;;;1.90;1.60;;;;;;;;;;5095495;28;20550;-79
2023/12/24 09:32:14;;;;;;;2.53;1.27;;;;;;;;;;5078909;28;20548;-79
2023/12/24 09:34:41;;;;;;;2.28;1.63;;;;;;;;;;5089565;28;20104;-80
2023/12/24 09:37:07;;;;;;;4.00;1.98;;;;;;;;;;5087391;28;20450;-78
2023/12/24 09:39:34;;;;;;;4.20;2.13;;;;;;;;;;5086211;28;20091;-80
2023/12/24 09:42:01;;;;;;;3.65;1.52;;;;;;;;;;5085407;28;20113;-79
2023/12/24 09:44:27;;;;;;;3.55;1.67;;;;;;;;;;5087067;28;20072;-78
2023/12/24 09:46:55;;;;;;;1.27;0.90;;;;;;;;;;5082399;28;20496;-79
2023/12/24 09:49:22;;;;;;;2.95;1.50;;;;;;;;;;5089320;28;20487;-79
2023/12/24 09:51:49;;;;;;;1.50;1.15;;;;;;;;;;5088623;28;20079;-78
2023/12/24 09:54:15;;;;;;;1.40;0.88;;;;;;;;;;5090331;28;20090;-80
2023/12/24 09:56:42;;;;;;;4.97;3.22;;;;;;;;;;5084429;28;20476;-79
2023/12/24 09:59:08;;;;;;;1.00;0.90;;;;;;;;;;5093770;28;20052;-80
2023/12/24 10:01:42;;;;;;;3.00;1.55;;;;;;;;;;5086433;28;20136;-79
2023/12/24 10:04:10;;;;;;;3.17;1.90;;;;;;;;;;5092113;28;20508;-79
2023/12/24 10:06:52;;;;;;;1.80;1.20;;;;;;;;;;5088858;28;20127;-80
2023/12/24 10:09:21;;;;;;;5.13;2.17;;;;;;;;;;5091834;28;20041;-79
2023/12/24 10:12:03;;;;;;;2.65;1.85;;;;;;;;;;5092575;28;20131;-78
2023/12/24 10:14:29;;;;;;;1.80;1.00;;;;;;;;;;5086893;28;20046;-79
2023/12/24 10:16:56;;;;;;;1.80;1.35;;;;;;;;;;5089438;28;20135;-79
2023/12/24 10:19:26;;;;;;;2.30;1.35;;;;;;;;;;5095440;28;20052;-79
2023/12/24 10:22:00;;;;;;;2.83;1.70;;;;;;;;;;5089360;28;20080;-79
2023/12/24 10:24:28;;;;;;;3.00;1.73;;;;;;;;;;5093377;28;20040;-78
2023/12/24 10:27:04;;;;;;;1.63;1.00;;;;;;;;;;5092607;28;20044;-79
2023/12/24 10:29:30;;;;;;;2.05;1.10;;;;;;;;;;5089815;28;20051;-79
2023/12/24 10:31:57;;;;;;;2.33;1.10;;;;;;;;;;5092890;28;20058;-80
2023/12/24 10:34:26;;;;;;;4.45;1.98;;;;;;;;;;5087234;28;20040;-78
2023/12/24 10:36:52;;;;;;;0.82;0.80;;;;;;;;;;5081074;28;20512;-79
2023/12/24 10:39:24;;;;;;;1.00;0.88;;;;;;;;;;5089806;28;20044;-80
2023/12/24 10:41:51;;;;;;;1.38;0.93;;;;;;;;;;5083488;28;20419;-78
2023/12/24 10:44:17;;;;;;;1.45;0.70;;;;;;;;;;5089034;28;20049;-79
2023/12/24 10:46:44;;;;;;;1.35;1.10;;;;;;;;;;5083439;28;20515;-80
2023/12/24 10:49:11;;;;;;;1.30;1.10;;;;;;;;;;5086136;28;20135;-79
2023/12/24 10:51:39;;;;;;;1.50;1.20;;;;;;;;;;5092185;28;20044;-80
2023/12/24 10:54:07;;;;;;;1.85;1.05;;;;;;;;;;5090333;28;20055;-79
2023/12/24 10:56:44;;;;;;;2.05;1.88;;;;;;;;;;5094066;28;20074;-79
2023/12/24 10:59:17;;;;;;;1.63;1.17;;;;;;;;;;5084431;28;20052;-78
2023/12/24 11:01:47;;;;;;;1.65;1.30;;;;;;;;;;5090498;28;20062;-79
2023/12/24 11:04:45;;;;;;;1.30;1.20;;;;;;;;;;5083686;28;20540;-79
2023/12/24 11:07:45;;;;;;;2.20;1.65;;;;;;;;;;5084753;28;20568;-79
2023/12/24 11:10:42;;;;;;;2.15;1.30;;;;;;;;;;5085136;28;20072;-79
2023/12/24 11:13:10;;;;;;;1.35;1.10;;;;;;;;;;5086599;28;20082;-80
2023/12/24 11:15:40;;;;;;;2.55;1.75;;;;;;;;;;5092865;28;20169;-80
2023/12/24 11:18:08;;;;;;;1.13;1.02;;;;;;;;;;5090230;28;20082;-79
2023/12/24 11:20:42;;;;;;;1.45;1.15;;;;;;;;;;5086159;28;20045;-79
2023/12/24 11:23:14;;;;;;;0.90;0.80;;;;;;;;;;5086501;28;20091;-79
2023/12/24 11:25:43;;;;;;;1.20;0.85;;;;;;;;;;5088787;28;20131;-79
2023/12/24 11:28:12;;;;;;;1.05;0.75;;;;;;;;;;5084157;28;20059;-78
2023/12/24 11:31:04;;;;;;;0.82;0.82;;;;;;;;;;5093958;28;20480;-80
2023/12/24 11:33:49;;;;;;;2.90;1.30;;;;;;;;;;5087255;28;20050;-80
2023/12/24 11:36:18;;;;;;;1.58;1.17;;;;;;;;;;5082518;28;20063;-79
2023/12/24 11:38:46;;;;;;;1.42;1.20;;;;;;;;;;5083660;28;20507;-80
2023/12/24 11:41:15;;;;;;;0.90;0.90;;;;;;;;;;5088931;28;20082;-79
2023/12/24 11:43:43;;;;;;;1.73;1.20;;;;;;;;;;5083967;28;20078;-79
2023/12/24 11:46:10;;;;;;;2.13;1.42;;;;;;;;;;5083080;28;20121;-78
2023/12/24 11:48:37;;;;;;;1.95;1.10;;;;;;;;;;5088241;28;20068;-79
2023/12/24 11:51:06;;;;;;;2.75;1.50;;;;;;;;;;5082092;28;20075;-79
2023/12/24 11:53:34;;;;;;;2.70;1.48;;;;;;;;;;5087285;28;20048;-79
2023/12/24 11:56:09;;;;;;;3.80;2.40;;;;;;;;;;5087772;28;20071;-79
2023/12/24 11:58:37;;;;;;;4.13;2.20;;;;;;;;;;5088459;28;20105;-78
2023/12/24 12:01:04;;;;;;;2.33;1.90;;;;;;;;;;5083713;28;20459;-80
2023/12/24 12:03:31;;;;;;;2.45;1.38;;;;;;;;;;5091147;28;20127;-79
2023/12/24 12:05:58;;;;;;;1.90;1.20;;;;;;;;;;5086539;28;20453;-80
2023/12/24 12:08:25;;;;;;;2.97;2.00;;;;;;;;;;5083090;28;20052;-79
2023/12/24 12:10:52;;;;;;;4.95;2.10;;;;;;;;;;5093741;28;20055;-80
2023/12/24 12:13:19;;;;;;;1.67;1.17;;;;;;;;;;5085358;28;20044;-80
2023/12/24 12:15:47;;;;;;;1.00;0.90;;;;;;;;;;5083650;28;20076;-79
2023/12/24 12:18:15;;;;;;;0.68;0.60;;;;;;;;;;5083760;28;20093;-80
2023/12/24 12:20:41;;;;;;;0.88;0.77;;;;;;;;;;5086183;28;20055;-80
2023/12/24 12:23:09;;;;;;;1.10;0.90;;;;;;;;;;5088596;28;20135;-79
2023/12/24 12:25:36;;;;;;;0.80;0.73;;;;;;;;;;5088515;28;20119;-80
2023/12/24 12:28:03;;;;;;;2.55;1.38;;;;;;;;;;5082084;28;20360;-79
2023/12/24 12:30:30;;;;;;;1.52;1.17;;;;;;;;;;5089355;28;20048;-79
2023/12/24 12:32:58;;;;;;;0.95;0.95;;;;;;;;;;5090297;28;20044;-79
2023/12/24 12:35:25;;;;;;;1.75;1.10;;;;;;;;;;5084031;28;20048;-79
2023/12/24 12:38:09;;;;;;;2.22;1.42;;;;;;;;;;5086822;28;20083;-79
2023/12/24 12:40:36;;;;;;;1.17;1.05;;;;;;;;;;5087821;28;20110;-79
2023/12/24 12:43:02;;;;;;;1.42;1.33;;;;;;;;;;5088419;28;20080;-79
2023/12/24 12:45:29;;;;;;;0.95;0.93;;;;;;;;;;5089862;28;20088;-78
2023/12/24 12:47:56;;;;;;;1.83;1.10;;;;;;;;;;5091004;28;20075;-78
2023/12/24 12:50:24;;;;;;;2.15;1.42;;;;;;;;;;5086071;28;20047;-78
2023/12/24 12:52:51;;;;;;;1.95;1.45;;;;;;;;;;5088381;28;20079;-78
2023/12/24 12:55:21;;;;;;;1.70;1.60;;;;;;;;;;5086410;28;20049;-78
2023/12/24 12:57:48;;;;;;;2.28;1.45;;;;;;;;;;5084932;28;20048;-79
2023/12/24 13:00:20;;;;;;;1.60;1.20;;;;;;;;;;5078144;28;20048;-78
2023/12/24 13:02:46;;;;;;;1.93;1.23;;;;;;;;;;5082957;28;20105;-79
2023/12/24 13:05:31;;;;;;;1.23;0.85;;;;;;;;;;5085420;28;20789;-79
2023/12/24 13:07:59;;;;;;;3.05;1.95;;;;;;;;;;5088659;28;20085;-78
2023/12/24 13:10:32;;;;;;;3.65;2.40;;;;;;;;;;5087066;28;20503;-78
2023/12/24 13:13:13;;;;;;;3.30;2.10;;;;;;;;;;5087492;28;20084;-78
2023/12/24 13:15:42;;;;;;;1.95;1.50;;;;;;;;;;5088123;28;20084;-78
2023/12/24 13:18:16;;;;;;;4.25;2.85;;;;;;;;;;5088021;28;20051;-79
2023/12/24 13:20:45;;;;;;;2.50;2.20;;;;;;;;;;5080995;28;20051;-78
2023/12/24 13:23:12;;;;;;;1.52;1.30;;;;;;;;;;5084678;28;20052;-79
2023/12/24 13:25:42;;;;;;;2.05;1.85;;;;;;;;;;5090028;28;20080;-78
2023/12/24 13:28:10;;;;;;;1.33;1.02;;;;;;;;;;5086117;28;20194;-78
2023/12/24 13:30:37;;;;;;;2.47;1.50;;;;;;;;;;5091304;28;20048;-78
2023/12/24 13:33:04;;;;;;;1.75;1.20;;;;;;;;;;5081397;28;20071;-78
2023/12/24 13:35:34;;;;;;;2.65;1.70;;;;;;;;;;5089867;28;20127;-79
2023/12/24 13:38:03;;;;;;;1.23;1.05;;;;;;;;;;5094405;28;20068;-78
2023/12/24 13:40:30;;;;;;;1.33;1.10;;;;;;;;;;5091153;28;20286;-78
2023/12/24 13:42:57;;;;;;;2.65;1.70;;;;;;;;;;5091377;28;20083;-78
2023/12/24 13:45:23;;;;;;;6.07;2.78;;;;;;;;;;5092878;28;20079;-77
2023/12/24 13:47:50;;;;;;;1.52;1.10;;;;;;;;;;5089757;28;20043;-78
2023/12/24 13:50:17;;;;;;;2.33;1.40;;;;;;;;;;5088639;28;20098;-78
2023/12/24 13:52:43;;;;;;;3.05;1.80;;;;;;;;;;5092178;28;20075;-79
2023/12/24 13:55:11;;;;;;;2.85;1.70;;;;;;;;;;5085010;28;20095;-78
2023/12/24 13:57:38;;;;;;;1.35;1.13;;;;;;;;;;5087389;28;20056;-77
2023/12/24 14:00:06;;;;;;;3.17;2.03;;;;;;;;;;5094752;28;20469;-78
2023/12/24 14:02:33;;;;;;;3.15;1.90;;;;;;;;;;5095804;28;20099;-78
2023/12/24 14:04:59;;;;;;;3.28;2.83;;;;;;;;;;5085711;28;20044;-78
2023/12/24 14:07:26;;;;;;;3.47;2.08;;;;;;;;;;5087157;28;20106;-78
2023/12/24 14:09:53;;;;;;;1.95;1.50;;;;;;;;;;5092212;28;20483;-78
2023/12/24 14:12:21;;;;;;;2.35;1.42;;;;;;;;;;5089471;28;20048;-78
2023/12/24 14:14:48;;;;;;;3.15;1.90;;;;;;;;;;5087398;28;20427;-78
2023/12/24 14:17:14;;;;;;;2.25;1.60;;;;;;;;;;5089863;28;20082;-78
2023/12/24 14:19:41;;;;;;;3.40;2.30;;;;;;;;;;5090022;28;20511;-78
2023/12/24 14:22:08;;;;;;;1.92;1.60;;;;;;;;;;5090700;28;20083;-78
2023/12/24 14:24:34;;;;;;;2.83;2.00;;;;;;;;;;5093690;28;20470;-79
2023/12/24 14:27:01;;;;;;;2.63;2.03;;;;;;;;;;5095363;28;20098;-78
2023/12/24 14:29:29;;;;;;;2.78;2.13;;;;;;;;;;5092503;28;20052;-78
2023/12/24 14:31:56;;;;;;;2.33;1.55;;;;;;;;;;5086807;28;20094;-78
2023/12/24 14:34:22;;;;;;;2.58;1.30;;;;;;;;;;5082571;28;20106;-78
2023/12/24 14:36:49;;;;;;;0.95;0.85;;;;;;;;;;5085474;28;20094;-79
2023/12/24 14:39:16;;;;;;;2.35;1.70;;;;;;;;;;5082089;28;20082;-78
2023/12/24 14:41:42;;;;;;;0.65;0.65;;;;;;;;;;5088998;28;20048;-79
2023/12/24 14:44:09;;;;;;;2.90;1.50;;;;;;;;;;5094185;28;20051;-79
2023/12/24 14:46:40;;;;;;;0.80;0.70;;;;;;;;;;5087731;28;20511;-79